Time,TemperatureF,DewpointF,PressureIn,WindDirection,WindDirectionDegrees,WindSpeedMPH,WindSpeedGustMPH,Humidity,HourlyPrecipIn,Conditions,Clouds,dailyrainin,SoftwareType,DateUTC
2013-01-23 00:22:00,-1.0,-8.0,-100.00,SW,220,2.0,2.0,72,0.00,,,-99.99,,2013-01-23 05:22:00,
2013-01-23 00:33:00,-1.0,-8.0,-100.00,SW,220,2.0,2.0,72,0.00,,,-99.99,,2013-01-23 05:33:00,
2013-01-23 00:43:00,-1.0,-8.0,-100.00,SW,220,2.0,2.0,72,0.00,,,-99.99,,2013-01-23 05:43:00,
2013-01-23 00:52:00,-1.0,-8.0,-100.00,SW,220,2.0,2.0,72,0.00,,,-99.99,,2013-01-23 05:52:00,
2013-01-23 01:22:00,0.0,-7.0,-100.00,SSW,210,2.0,3.0,74,0.00,,,-99.99,,2013-01-23 06:22:00,
2013-01-23 01:32:00,0.0,-7.0,-100.00,SSW,210,2.0,3.0,74,0.00,,,-99.99,,2013-01-23 06:32:00,
2013-01-23 01:43:00,0.0,-7.0,-100.00,SSW,210,2.0,3.0,74,0.00,,,-99.99,,2013-01-23 06:43:00,
2013-01-23 01:52:00,0.0,-7.0,-100.00,SSW,210,2.0,3.0,74,0.00,,,-99.99,,2013-01-23 06:52:00,
2013-01-23 03:13:00,1.0,-5.0,-100.00,SSW,200,0.0,0.0,75,0.00,,,-99.99,,2013-01-23 08:13:00,
2013-01-23 03:22:00,1.0,-5.0,-100.00,SSW,200,0.0,0.0,75,0.00,,,-99.99,,2013-01-23 08:22:00,
2013-01-23 03:33:00,1.0,-5.0,-100.00,SSW,200,0.0,0.0,75,0.00,,,-99.99,,2013-01-23 08:33:00,
2013-01-23 03:42:00,1.0,-5.0,-100.00,SSW,200,0.0,0.0,75,0.00,,,-99.99,,2013-01-23 08:42:00,
2013-01-23 03:52:00,1.0,-5.0,-100.00,SSW,200,0.0,0.0,75,0.00,,,-99.99,,2013-01-23 08:52:00,
2013-01-23 04:12:00,2.0,-4.0,-100.00,SSW,195,2.0,2.0,75,0.00,,,-99.99,,2013-01-23 09:12:00,
2013-01-23 04:22:00,2.0,-4.0,-100.00,South,170,1.0,2.0,75,0.00,,,-99.99,,2013-01-23 09:22:00,
2013-01-23 04:32:00,2.0,-4.0,-100.00,South,170,1.0,2.0,75,0.00,,,-99.99,,2013-01-23 09:32:00,
2013-01-23 04:43:00,2.0,-4.0,-100.00,South,170,1.0,2.0,75,0.00,,,-99.99,,2013-01-23 09:43:00,
2013-01-23 04:52:00,2.0,-4.0,-100.00,South,170,1.0,2.0,75,0.00,,,-99.99,,2013-01-23 09:52:00,
2013-01-23 05:23:00,5.0,-1.0,-100.00,SW,215,2.0,4.0,77,0.00,,,-99.99,,2013-01-23 10:23:00,
2013-01-23 05:33:00,5.0,-1.0,-100.00,SW,215,2.0,4.0,77,0.00,,,-99.99,,2013-01-23 10:33:00,
2013-01-23 05:43:00,5.0,-1.0,-100.00,SW,215,2.0,4.0,77,0.00,,,-99.99,,2013-01-23 10:43:00,
2013-01-23 05:52:00,5.0,-1.0,-100.00,SW,215,2.0,4.0,77,0.00,,,-99.99,,2013-01-23 10:52:00,
2013-01-23 07:12:00,7.0,-1.0,-100.00,SW,220,4.0,7.0,70,0.00,,,-99.99,,2013-01-23 12:12:00,
2013-01-23 07:22:00,7.0,-1.0,-100.00,SW,220,4.0,7.0,70,0.00,,,-99.99,,2013-01-23 12:22:00,
2013-01-23 07:33:00,7.0,-1.0,-100.00,SW,220,4.0,7.0,70,0.00,,,-99.99,,2013-01-23 12:33:00,
2013-01-23 07:43:00,7.0,-1.0,-100.00,SW,220,4.0,7.0,70,0.00,,,-99.99,,2013-01-23 12:43:00,
2013-01-23 07:52:00,7.0,-1.0,-100.00,SW,220,4.0,7.0,70,0.00,,,-99.99,,2013-01-23 12:52:00,
2013-01-23 08:23:00,8.0,1.0,-100.00,SW,220,3.0,9.0,72,0.00,,,-99.99,,2013-01-23 13:23:00,
2013-01-23 08:33:00,8.0,1.0,-100.00,SW,220,3.0,9.0,72,0.00,,,-99.99,,2013-01-23 13:33:00,
2013-01-23 08:42:00,8.0,1.0,-100.00,SW,220,3.0,9.0,72,0.00,,,-99.99,,2013-01-23 13:42:00,
2013-01-23 08:52:00,8.0,1.0,-100.00,SW,220,3.0,9.0,72,0.00,,,-99.99,,2013-01-23 13:52:00,
2013-01-23 08:53:00,9.0,3.0,-100.00,SW,225,6.0,8.0,77,0.00,,,-99.99,,2013-01-23 13:53:00,
2013-01-23 09:12:00,9.0,3.0,-100.00,SW,225,6.0,8.0,77,0.00,,,-99.99,,2013-01-23 14:12:00,
2013-01-23 09:23:00,9.0,3.0,-100.00,SW,225,6.0,8.0,77,0.00,,,-99.99,,2013-01-23 14:23:00,
2013-01-23 09:33:00,9.0,3.0,-100.00,SW,225,6.0,8.0,77,0.00,,,-99.99,,2013-01-23 14:33:00,
2013-01-23 09:43:00,9.0,3.0,-100.00,SW,225,6.0,8.0,77,0.00,,,-99.99,,2013-01-23 14:43:00,
2013-01-23 10:12:00,10.0,5.0,-100.00,SW,225,4.0,9.0,79,0.00,,,-99.99,,2013-01-23 15:12:00,
2013-01-23 10:23:00,10.0,5.0,-100.00,SW,225,4.0,9.0,79,0.00,,,-99.99,,2013-01-23 15:23:00,
2013-01-23 10:33:00,10.0,5.0,-100.00,SW,225,4.0,9.0,79,0.00,,,-99.99,,2013-01-23 15:33:00,
2013-01-23 10:43:00,10.0,5.0,-100.00,SW,225,4.0,9.0,79,0.00,,,-99.99,,2013-01-23 15:43:00,
2013-01-23 10:53:00,10.0,5.0,-100.00,SW,225,4.0,9.0,79,0.00,,,-99.99,,2013-01-23 15:53:00,
2013-01-23 11:12:00,11.0,6.0,-100.00,WSW,245,5.0,11.0,80,0.00,,,-99.99,,2013-01-23 16:12:00,
2013-01-23 11:23:00,11.0,6.0,-100.00,SW,215,6.0,9.0,80,0.00,,,-99.99,,2013-01-23 16:23:00,
2013-01-23 11:33:00,11.0,6.0,-100.00,SW,215,6.0,9.0,80,0.00,,,-99.99,,2013-01-23 16:33:00,
2013-01-23 11:42:00,11.0,6.0,-100.00,SW,215,6.0,9.0,80,0.00,,,-99.99,,2013-01-23 16:42:00,
2013-01-23 11:52:00,11.0,6.0,-100.00,SW,215,6.0,9.0,80,0.00,,,-99.99,,2013-01-23 16:52:00,
2013-01-23 12:12:00,13.0,8.0,-100.00,SW,230,6.0,9.0,80,0.00,,,-99.99,,2013-01-23 17:12:00,
2013-01-23 12:23:00,13.0,8.0,-100.00,SW,230,6.0,9.0,80,0.00,,,-99.99,,2013-01-23 17:23:00,
2013-01-23 12:33:00,13.0,8.0,-100.00,SW,230,6.0,9.0,80,0.00,,,-99.99,,2013-01-23 17:33:00,
2013-01-23 12:42:00,13.0,8.0,-100.00,SW,230,6.0,9.0,80,0.00,,,-99.99,,2013-01-23 17:42:00,
2013-01-23 12:52:00,13.0,8.0,-100.00,SW,230,6.0,9.0,80,0.00,,,-99.99,,2013-01-23 17:52:00,
2013-01-23 13:12:00,14.0,9.0,-100.00,WSW,240,8.0,16.0,78,0.00,,,-99.99,,2013-01-23 18:12:00,
2013-01-23 13:23:00,14.0,9.0,-100.00,WSW,240,8.0,16.0,78,0.00,,,-99.99,,2013-01-23 18:23:00,
2013-01-23 13:33:00,14.0,9.0,-100.00,WSW,240,8.0,16.0,78,0.00,,,-99.99,,2013-01-23 18:33:00,
2013-01-23 13:43:00,14.0,9.0,-100.00,WSW,240,8.0,16.0,78,0.00,,,-99.99,,2013-01-23 18:43:00,
2013-01-23 13:52:00,14.0,9.0,-100.00,WSW,240,8.0,16.0,78,0.00,,,-99.99,,2013-01-23 18:52:00,
2013-01-23 14:13:00,16.0,10.0,-100.00,West,260,7.0,15.0,75,0.00,,,-99.99,,2013-01-23 19:13:00,
2013-01-23 14:23:00,16.0,10.0,-100.00,West,260,7.0,15.0,75,0.00,,,-99.99,,2013-01-23 19:23:00,
2013-01-23 14:33:00,16.0,10.0,-100.00,West,260,7.0,15.0,75,0.00,,,-99.99,,2013-01-23 19:33:00,
2013-01-23 14:43:00,16.0,10.0,-100.00,West,260,7.0,15.0,75,0.00,,,-99.99,,2013-01-23 19:43:00,
2013-01-23 14:52:00,16.0,10.0,-100.00,West,260,7.0,15.0,75,0.00,,,-99.99,,2013-01-23 19:52:00,
2013-01-23 14:53:00,17.0,10.0,-100.00,West,260,11.0,15.0,74,0.04,,,-99.99,,2013-01-23 19:53:00,
2013-01-23 15:13:00,17.0,10.0,-100.00,West,260,11.0,15.0,74,0.04,,,-99.99,,2013-01-23 20:13:00,
2013-01-23 15:23:00,17.0,10.0,-100.00,West,260,11.0,15.0,74,0.04,,,-99.99,,2013-01-23 20:23:00,
2013-01-23 15:33:00,17.0,10.0,-100.00,West,260,11.0,15.0,74,0.04,,,-99.99,,2013-01-23 20:33:00,
2013-01-23 15:43:00,17.0,10.0,-100.00,West,260,11.0,15.0,74,0.04,,,-99.99,,2013-01-23 20:43:00,
2013-01-23 16:12:00,17.0,11.0,-100.00,West,265,9.0,13.0,79,0.01,,,-99.99,,2013-01-23 21:12:00,
2013-01-23 16:23:00,17.0,11.0,-100.00,West,265,9.0,13.0,79,0.01,,,-99.99,,2013-01-23 21:23:00,
2013-01-23 16:33:00,17.0,11.0,-100.00,West,265,9.0,13.0,79,0.01,,,-99.99,,2013-01-23 21:33:00,
2013-01-23 16:42:00,17.0,11.0,-100.00,West,265,9.0,13.0,79,0.01,,,-99.99,,2013-01-23 21:42:00,
2013-01-23 16:52:00,17.0,11.0,-100.00,West,265,9.0,13.0,79,0.01,,,-99.99,,2013-01-23 21:52:00,
2013-01-23 17:12:00,17.0,8.0,-100.00,WNW,285,12.0,22.0,69,0.00,,,-99.99,,2013-01-23 22:12:00,
2013-01-23 17:23:00,17.0,8.0,-100.00,WNW,285,12.0,22.0,69,0.00,,,-99.99,,2013-01-23 22:23:00,
2013-01-23 17:33:00,17.0,8.0,-100.00,WNW,285,12.0,22.0,69,0.00,,,-99.99,,2013-01-23 22:33:00,
2013-01-23 17:42:00,17.0,8.0,-100.00,WNW,285,12.0,22.0,69,0.00,,,-99.99,,2013-01-23 22:42:00,
2013-01-23 17:52:00,17.0,8.0,-100.00,WNW,285,12.0,22.0,69,0.00,,,-99.99,,2013-01-23 22:52:00,
2013-01-23 18:13:00,15.0,8.0,-100.00,WNW,295,14.0,22.0,73,0.23,,,-99.99,,2013-01-23 23:13:00,
2013-01-23 18:23:00,15.0,8.0,-100.00,WNW,295,14.0,22.0,73,0.23,,,-99.99,,2013-01-23 23:23:00,
2013-01-23 18:33:00,15.0,8.0,-100.00,WNW,295,14.0,22.0,73,0.23,,,-99.99,,2013-01-23 23:33:00,
2013-01-23 18:43:00,15.0,8.0,-100.00,WNW,295,14.0,22.0,73,0.23,,,-99.99,,2013-01-23 23:43:00,
2013-01-23 18:52:00,15.0,8.0,-100.00,WNW,295,14.0,22.0,73,0.23,,,-99.99,,2013-01-23 23:52:00,
2013-01-23 18:53:00,13.0,9.0,-100.00,NW,315,14.0,27.0,87,4.02,,,-99.99,,2013-01-23 23:53:00,
2013-01-23 19:12:00,13.0,9.0,-100.00,NW,315,14.0,27.0,87,4.02,,,-99.99,,2013-01-24 00:12:00,
2013-01-23 19:22:00,13.0,9.0,-100.00,NW,315,14.0,27.0,87,4.02,,,-99.99,,2013-01-24 00:22:00,
2013-01-23 19:32:00,13.0,9.0,-100.00,NW,315,14.0,27.0,87,4.02,,,-99.99,,2013-01-24 00:32:00,
2013-01-23 19:42:00,13.0,9.0,-100.00,NW,315,14.0,27.0,87,4.02,,,-99.99,,2013-01-24 00:42:00,
2013-01-23 20:12:00,11.0,3.0,-100.00,NW,320,12.0,22.0,71,0.10,,,-99.99,,2013-01-24 01:12:00,
2013-01-23 20:23:00,11.0,3.0,-100.00,NW,320,12.0,22.0,71,0.10,,,-99.99,,2013-01-24 01:23:00,
2013-01-23 20:33:00,11.0,3.0,-100.00,NW,320,12.0,22.0,71,0.10,,,-99.99,,2013-01-24 01:33:00,
2013-01-23 20:42:00,11.0,3.0,-100.00,NW,320,12.0,22.0,71,0.10,,,-99.99,,2013-01-24 01:42:00,
2013-01-23 20:52:00,11.0,3.0,-100.00,NW,320,12.0,22.0,71,0.10,,,-99.99,,2013-01-24 01:52:00,
2013-01-23 21:12:00,9.0,2.0,-100.00,NNW,340,12.0,19.0,71,0.00,,,-99.99,,2013-01-24 02:12:00,
2013-01-23 21:22:00,9.0,2.0,-100.00,NNW,340,12.0,19.0,71,0.00,,,-99.99,,2013-01-24 02:22:00,
2013-01-23 21:33:00,9.0,2.0,-100.00,NNW,340,12.0,19.0,71,0.00,,,-99.99,,2013-01-24 02:33:00,
2013-01-23 21:42:00,9.0,2.0,-100.00,NNW,340,12.0,19.0,71,0.00,,,-99.99,,2013-01-24 02:42:00,
2013-01-23 21:51:00,7.0,-3.0,-100.00,NNW,335,15.0,24.0,64,0.00,,,-99.99,,2013-01-24 02:51:00,
2013-01-23 21:52:00,9.0,2.0,-100.00,NNW,340,12.0,19.0,71,0.00,,,-99.99,,2013-01-24 02:52:00,
2013-01-23 22:12:00,7.0,-3.0,-100.00,NNW,335,15.0,24.0,64,0.00,,,-99.99,,2013-01-24 03:12:00,
2013-01-23 22:22:00,7.0,-3.0,-100.00,NNW,335,15.0,24.0,64,0.00,,,-99.99,,2013-01-24 03:22:00,
2013-01-23 22:33:00,7.0,-3.0,-100.00,NNW,335,15.0,24.0,64,0.00,,,-99.99,,2013-01-24 03:33:00,
2013-01-23 22:43:00,7.0,-3.0,-100.00,NNW,335,15.0,24.0,64,0.00,,,-99.99,,2013-01-24 03:43:00,
2013-01-23 22:51:00,5.0,-7.0,-100.00,NNW,335,12.0,21.0,58,0.00,,,-99.99,,2013-01-24 03:51:00,
2013-01-23 23:12:00,5.0,-7.0,-100.00,NNW,335,12.0,21.0,58,0.00,,,-99.99,,2013-01-24 04:12:00,
2013-01-23 23:22:00,5.0,-7.0,-100.00,NNW,335,12.0,21.0,58,0.00,,,-99.99,,2013-01-24 04:22:00,
2013-01-23 23:32:00,5.0,-7.0,-100.00,NNW,335,12.0,21.0,58,0.00,,,-99.99,,2013-01-24 04:32:00,
2013-01-23 23:42:00,5.0,-7.0,-100.00,NNW,335,12.0,21.0,58,0.00,,,-99.99,,2013-01-24 04:42:00,
2013-01-23 23:52:00,2.0,-8.0,-100.00,NW,325,12.0,19.0,60,0.00,,,-99.99,,2013-01-24 04:52:00,